Fort Madison, IA

10:34 AM CDT on October 30, 2014 (GMT -0500)
River Bend Condos | Change Station
CLOSE
Current Station
Personal Weather Station
Location: Fort Madison, IA
Elevation: 535 ft
Nearby Weather Stations

Elev 535 ft 40.63 °N, 91.37 °W | Updated 13 minutes ago

Overcast
Overcast
45.7 °F
Feels Like 43 °F
N
5.8
Wind Variable Wind from ESE

Today
High -- | Low -- °F
--% Chance of Precip.
Yesterday
High -- | Low -- °F
Precip. -- in
7:33 AM 6:04 PM
Waxing Crescent, 45% visible
Pressure 30.08 in
Visibility 10.0 miles
Clouds Overcast 8000 ft
Windchill 43 °F
Dew Point 40 °F
Humidity 80%
Rainfall 0.00 in
Snow Depth Not available.
UV 1 out of 12
Pollen .20 out of 12
Air Quality Not available.
Flu Activity Not available.
METAR KFSW 301515Z AUTO 15005KT 10SM OVC080 08/04 A3008 RMK AO2

More Conditions Fewer Conditions

Pressure 30.08 in
Visibility 10.0 miles
Clouds Overcast 8000 ft
Windchill 43 °F
Dew Point 40 °F
Humidity 80%
Rainfall 0.00 in
Snow Depth Not available.
UV 1 out of 12
Pollen .20 out of 12
Air Quality Not available.
Flu Activity Not available.
METAR KFSW 301515Z AUTO 15005KT 10SM OVC080 08/04 A3008 RMK AO2

More Conditions Fewer Conditions

10-Day Weather Forecast

Almanac

Astronomy

Oct. 30, 2014 Rise Set
Actual Time
Civil Twilight
Nautical Twilight
Astronomical Twilight
Moon
Length of Visible Light
Length of Day
Tomorrow will be .
, % of the Moon is Illuminated

Today's Extremes

State Highs State Lows

Community

WunderPhotos

Upload Photos

1,766,387 photos uploaded!

WunderBlogs® & News

Nearby

Air Quality

  Air Quality AQ Index Pollutant
Not available.

Snow Depth

Station Depth Elevation

Earthquake Activity

City Distance Mag. Time & Date
Minimum magnitude displayed is 2.5.

Coastal Water Temperatures

Place Temperature

Nearby Weather Stations